Kamloops, Canada
Current Conditions -  °F | °C
As of 7:00 PM on Saturday 22 Nov 2014 (Local Time) from CYKA Reporting Station
Broken Clouds Broken Clouds  
Wind Chill: 37°   Ceiling: 9000
Heat Index: 37°   Visibility: 40mi
Dew Point: 30°   Wind: 0mph
Humidity: 75%   Direction: NA
Pressure: 29.84"   Gusts: NA
Location:  50.68°N, 120.34°W
Report Text: CYKA 230300Z 00000KT 40SM BKN090 03/M01 A2984 RMK AC5 SLP120
Loading
Personal Weather Stations






























Interactive Weather Map New forecast layout! Learn more

10-Day Weather Forecast

Advertisements
Track Severe Weather on mobile